CST,Max TemperatureF,Mean TemperatureF,Min TemperatureF,Max Dew PointF,MeanDew PointF,Min DewpointF,Max Humidity, Mean Humidity, Min Humidity, Max Sea Level PressureIn, Mean Sea Level PressureIn, Min Sea Level PressureIn, Max VisibilityMiles, Mean VisibilityMiles, Min VisibilityMiles, Max Wind SpeedMPH, Mean Wind SpeedMPH, Max Gust SpeedMPH,PrecipitationIn, CloudCover, Events, WindDirDegrees
2012-12-1,80,70,60,64,62,57,100,79,47,30.00,29.92,29.84,10,9,5,28,15,37,0.00,2,,183
2012-12-2,78,61,44,64,57,45,100,79,57,30.07,29.99,29.93,10,10,5,18,6,25,0.00,0,,202
2012-12-3,80,71,62,66,61,45,94,70,46,30.00,29.90,29.81,10,10,10,24,17,36,0.00,3,,195
2012-12-4,68,56,44,46,36,28,67,45,24,30.33,30.22,30.01,10,10,10,17,12,22,0.00,1,,13
2012-12-5,66,50,35,45,34,30,87,54,30,30.33,30.20,30.03,10,10,10,12,3,,0.00,0,,138
2012-12-6,68,59,50,54,51,46,100,79,56,30.02,29.87,29.79,10,9,2,20,11,25,0.00,1,,161
2012-12-7,55,53,51,55,54,50,100,99,94,29.93,29.86,29.81,10,5,1,8,4,,0.00,8,,328
2012-12-8,60,56,51,54,51,50,100,88,68,29.96,29.89,29.79,10,8,1,9,4,,0.00,6,,130
2012-12-9,53,42,32,52,39,16,100,76,46,30.15,29.93,29.73,10,7,1,29,11,37,0.00,4,,355
2012-12-10,39,32,24,23,16,12,75,53,36,30.20,30.13,30.08,10,10,4,24,12,29,0.00,1,Snow,326
2012-12-11,51,38,24,27,18,12,69,49,30,30.23,30.14,30.09,10,10,10,9,5,,0.00,0,,203
2012-12-12,55,42,30,28,23,18,65,48,33,30.28,30.21,30.15,10,10,10,18,9,28,0.00,0,,178
2012-12-13,62,50,37,34,29,23,61,45,34,30.22,30.17,30.12,10,10,10,24,14,30,0.00,0,,175
2012-12-14,55,52,48,54,40,30,100,65,44,30.14,29.97,29.76,10,10,3,25,14,37,0.06,6,Rain,165
2012-12-15,60,56,51,54,42,39,100,61,48,29.82,29.76,29.71,10,10,10,17,12,28,0.01,0,,218
2012-12-16,68,55,41,43,40,34,100,60,28,29.79,29.74,29.65,10,10,7,24,9,31,0.00,0,,260
2012-12-17,60,48,35,41,38,36,100,78,42,29.90,29.83,29.78,10,8,4,10,5,,0.00,1,,272
2012-12-18,66,54,41,37,35,34,81,56,32,29.82,29.78,29.73,10,10,10,10,6,,0.00,0,,183
2012-12-19,71,56,41,64,48,32,100,71,39,29.78,29.63,29.51,10,10,5,32,10,40,0.00,3,,185
2012-12-20,48,40,32,36,22,14,81,52,25,30.37,30.19,29.73,10,10,10,34,23,45,0.00,2,,310
2012-12-21,66,48,30,25,20,14,64,38,19,30.39,30.31,30.24,10,10,10,17,5,23,0.00,0,,208
2012-12-22,62,50,37,41,25,18,67,38,22,30.23,30.10,29.96,10,10,10,21,10,26,0.00,0,,198
2012-12-23,55,44,32,46,36,28,100,71,41,29.98,29.91,29.84,10,9,0,13,6,,0.00,0,Fog,318
2012-12-24,42,34,26,28,27,25,100,78,53,30.07,29.98,29.91,10,8,5,12,8,,0.00,0,,19
2012-12-25,35,30,26,30,27,19,93,85,74,30.20,29.98,29.86,10,8,2,26,14,36,0.00,7,Snow-Thunderstorm,16
2012-12-26,33,25,17,25,19,12,86,76,65,30.30,30.20,30.11,10,10,10,22,11,26,0.00,1,,341
2012-12-27,37,32,26,34,29,23,100,90,80,30.11,29.99,29.89,10,9,2,18,6,24,0.00,3,,156
2012-12-28,37,30,24,34,28,18,100,86,60,30.21,30.04,29.94,10,6,1,16,7,20,0.00,5,Snow,334
2012-12-29,46,32,19,30,23,16,87,71,50,30.42,30.34,30.20,10,10,10,9,5,,0.00,0,,290
2012-12-30,44,37,30,36,29,23,93,73,43,30.41,30.31,30.18,10,10,10,17,8,24,0.00,1,Rain,176
2012-12-31,42,38,35,43,39,36,100,100,93,30.18,30.06,29.96,10,4,0,17,10,23,0.56,8,Fog-Rain,181